Time;durP1;ratioP1;P1;durP2;ratioP2;P2;SDS_P1;SDS_P2;PMS_P1;PMS_P2;Temp;Humidity;BMP_temperature;BMP_pressure;BME280_temperature;BME280_humidity;BME280_pressure;Samples;Min_cycle;Max_cycle;Signal;HPM_P1;HPM_P2
2020/12/05 00:03:10;;;;;;;23.98;10.13;;;1.70;99.90;;;;;;21036293;28;19912;-80
2020/12/05 00:13:11;;;;;;;17.15;9.38;;;1.50;99.90;;;;;;21067089;28;20020;-80
2020/12/05 00:23:12;;;;;;;18.40;8.70;;;1.30;99.90;;;;;;21042636;28;20124;-80
2020/12/05 00:33:13;;;;;;;18.35;9.25;;;1.20;99.90;;;;;;21023567;28;20405;-80
2020/12/05 00:43:14;;;;;;;24.58;11.48;;;0.90;99.90;;;;;;21109236;28;20056;-80
2020/12/05 00:53:15;;;;;;;22.10;11.32;;;0.80;99.90;;;;;;21089931;28;20039;-81
2020/12/05 01:03:16;;;;;;;28.42;12.48;;;0.70;99.90;;;;;;21073961;28;20076;-80
2020/12/05 01:13:17;;;;;;;23.20;11.88;;;0.70;99.90;;;;;;21108365;28;20032;-80
2020/12/05 01:23:18;;;;;;;24.45;11.43;;;0.70;99.90;;;;;;21087966;28;20063;-81
2020/12/05 01:33:19;;;;;;;31.20;11.00;;;0.60;99.90;;;;;;21072210;28;20055;-80
2020/12/05 01:43:20;;;;;;;33.15;11.10;;;0.60;99.90;;;;;;20988614;28;20028;-80
2020/12/05 01:53:22;;;;;;;24.20;11.77;;;0.50;99.90;;;;;;21022837;28;20035;-81
2020/12/05 02:03:23;;;;;;;21.77;9.70;;;0.60;99.90;;;;;;21007399;28;20036;-81
2020/12/05 02:13:39;;;;;;;24.40;9.98;;;0.50;99.90;;;;;;21007978;28;20033;-80
2020/12/05 02:23:43;;;;;;;19.30;9.07;;;0.50;99.90;;;;;;21026719;28;20060;-81
2020/12/05 02:33:44;;;;;;;18.73;8.68;;;0.60;99.90;;;;;;21028296;28;20529;-81
2020/12/05 02:43:45;;;;;;;20.15;9.10;;;0.60;99.90;;;;;;21104545;28;20051;-81
2020/12/05 02:53:45;;;;;;;285.95;20.98;;;0.50;99.90;;;;;;21123874;28;20083;-81
2020/12/05 03:03:46;;;;;;;23.63;10.50;;;0.50;99.90;;;;;;21112826;28;20437;-82
2020/12/05 03:13:47;;;;;;;52.50;11.93;;;0.50;99.90;;;;;;21086228;28;20036;-81
2020/12/05 03:23:48;;;;;;;25.00;11.52;;;0.50;99.90;;;;;;21088018;28;20034;-81
2020/12/05 03:33:49;;;;;;;23.33;10.48;;;0.60;99.90;;;;;;21049874;28;20400;-80
2020/12/05 03:43:50;;;;;;;20.08;8.77;;;0.60;99.90;;;;;;21089009;22;20048;-74
2020/12/05 03:53:51;;;;;;;19.27;8.57;;;0.70;99.90;;;;;;21081057;28;20031;-73
2020/12/05 04:03:52;;;;;;;20.70;9.10;;;0.70;99.90;;;;;;21079826;28;20036;-74
2020/12/05 04:13:52;;;;;;;;;;;0.70;99.90;;;;;;21080487;28;20032;-73
2020/12/05 04:23:54;;;;;;;19.30;8.20;;;0.70;99.90;;;;;;21079142;28;20016;-73
2020/12/05 04:33:55;;;;;;;17.80;6.65;;;0.80;99.90;;;;;;21077037;28;20704;-73
2020/12/05 04:43:56;;;;;;;17.08;6.57;;;0.80;99.90;;;;;;21077244;28;20036;-73
2020/12/05 04:53:57;;;;;;;15.55;5.40;;;0.80;99.90;;;;;;21076882;28;20020;-73
2020/12/05 05:04:00;;;;;;;16.25;6.22;;;0.90;99.90;;;;;;21075413;28;20036;-74
2020/12/05 05:14:03;;;;;;;17.45;7.28;;;0.90;99.90;;;;;;21075573;28;20035;-74
2020/12/05 05:24:14;;;;;;;24.67;9.63;;;0.80;99.90;;;;;;21074666;28;20104;-73
2020/12/05 05:34:20;;;;;;;25.65;9.93;;;0.80;99.90;;;;;;21047565;28;20120;-74
2020/12/05 05:44:27;;;;;;;31.73;11.55;;;0.70;99.90;;;;;;20989941;28;20158;-74
2020/12/05 05:54:31;;;;;;;28.27;10.23;;;0.70;99.90;;;;;;20989781;28;20028;-74
2020/12/05 06:04:33;;;;;;;30.98;10.30;;;0.80;99.90;;;;;;20989076;28;20043;-74
2020/12/05 06:14:34;;;;;;;27.20;9.38;;;0.80;99.90;;;;;;20997410;28;20032;-74
2020/12/05 06:24:48;;;;;;;37.80;12.80;;;0.90;99.90;;;;;;21004635;28;20111;-72
2020/12/05 06:34:49;;;;;;;35.78;12.40;;;1.00;99.90;;;;;;21035238;28;20032;-72
2020/12/05 06:44:49;;;;;;;34.28;14.27;;;1.00;99.90;;;;;;21086818;28;20081;-74
2020/12/05 06:54:59;;;;;;;35.90;16.33;;;1.00;99.90;;;;;;21085048;28;20036;-73
2020/12/05 07:05:19;;;;;;;41.75;16.75;;;1.10;99.90;;;;;;21085432;28;20111;-73
2020/12/05 07:15:25;;;;;;;39.97;17.02;;;1.10;99.90;;;;;;21083219;28;20165;-73
2020/12/05 07:25:26;;;;;;;34.67;16.60;;;1.60;99.90;;;;;;21032158;28;20033;-72
2020/12/05 07:35:26;;;;;;;;;;;1.90;99.90;;;;;;20999959;28;20112;-74
2020/12/05 07:45:30;;;;;;;32.33;14.57;;;1.80;99.90;;;;;;20998676;28;19912;-74
2020/12/05 07:55:31;;;;;;;27.63;13.77;;;1.50;99.90;;;;;;20998022;28;20761;-74
2020/12/05 08:05:50;;;;;;;;;;;1.50;99.90;;;;;;20997513;28;20396;-74
2020/12/05 08:16:07;;;;;;;31.77;13.95;;;1.60;99.90;;;;;;21000410;28;19908;-74
2020/12/05 08:26:13;;;;;;;26.88;7.20;;;1.70;99.90;;;;;;21047510;28;20063;-75
2020/12/05 08:36:19;;;;;;;26.85;13.10;;;1.90;99.90;;;;;;21032830;28;20078;-75
2020/12/05 08:46:22;;;;;;;29.42;13.90;;;2.20;99.90;;;;;;21077593;28;20512;-75
2020/12/05 08:56:23;;;;;;;33.03;15.25;;;1.80;99.90;;;;;;21011705;28;20038;-75
2020/12/05 09:06:24;;;;;;;;;;;1.90;99.90;;;;;;21005780;28;20547;-75
2020/12/05 09:16:34;;;;;;;42.28;19.08;;;1.90;99.90;;;;;;21066802;28;19934;-76
2020/12/05 09:26:54;;;;;;;53.70;22.80;;;1.90;99.90;;;;;;21041698;28;20078;-75
2020/12/05 09:36:55;;;;;;;49.25;21.58;;;2.00;99.90;;;;;;21019973;28;20080;-75
2020/12/05 09:46:55;;;;;;;;;;;2.00;99.90;;;;;;21103866;22;20382;-79
2020/12/05 09:56:56;;;;;;;38.80;17.63;;;2.10;99.90;;;;;;21029166;28;20389;-80
2020/12/05 10:06:57;;;;;;;39.90;17.48;;;2.10;99.90;;;;;;21001393;28;20044;-75
2020/12/05 10:16:58;;;;;;;35.92;16.50;;;2.20;99.90;;;;;;20989951;28;20039;-76
2020/12/05 10:26:59;;;;;;;35.25;15.93;;;2.40;99.90;;;;;;20935703;28;20037;-77
2020/12/05 10:37:00;;;;;;;32.33;16.47;;;2.60;99.90;;;;;;20976166;28;20032;-77
2020/12/05 10:47:01;;;;;;;33.97;15.77;;;2.70;99.90;;;;;;20941311;28;20322;-76
2020/12/05 10:57:02;;;;;;;36.20;16.23;;;2.80;99.90;;;;;;20907555;28;20387;-78
2020/12/05 11:07:02;;;;;;;51.95;19.75;;;2.90;99.90;;;;;;20901310;28;20033;-77
2020/12/05 11:17:03;;;;;;;33.07;15.07;;;3.00;99.90;;;;;;20912591;28;20032;-77
2020/12/05 11:27:04;;;;;;;28.83;16.37;;;3.20;99.90;;;;;;20947828;28;20025;-76
2020/12/05 11:37:05;;;;;;;27.73;13.90;;;3.30;99.90;;;;;;20919131;28;20029;-78
2020/12/05 11:47:06;;;;;;;33.60;15.77;;;3.50;99.90;;;;;;20914295;28;20505;-75
2020/12/05 11:57:06;;;;;;;31.90;15.43;;;3.50;99.90;;;;;;20892782;28;20032;-75
2020/12/05 12:07:08;;;;;;;29.27;14.70;;;4.30;99.90;;;;;;20932550;28;20044;-75
2020/12/05 12:17:09;;;;;;;30.95;14.48;;;4.60;99.90;;;;;;20932150;28;20061;-75
2020/12/05 12:27:09;;;;;;;28.77;14.70;;;5.30;99.90;;;;;;20935343;28;20116;-75
2020/12/05 12:37:10;;;;;;;30.50;15.90;;;4.60;99.90;;;;;;20926033;28;20052;-75
2020/12/05 12:47:24;;;;;;;29.57;15.70;;;4.30;99.90;;;;;;20938319;28;20062;-75
2020/12/05 12:57:29;;;;;;;32.22;16.90;;;4.30;99.90;;;;;;20871357;28;20032;-75
2020/12/05 13:07:30;;;;;;;30.98;15.25;;;4.20;99.90;;;;;;20909588;28;20036;-74
2020/12/05 13:17:31;;;;;;;26.50;14.87;;;3.80;99.90;;;;;;20870220;28;20036;-75
2020/12/05 13:27:32;;;;;;;28.20;14.37;;;3.60;99.90;;;;;;20909799;28;20450;-76
2020/12/05 13:37:33;;;;;;;26.60;14.27;;;3.60;99.90;;;;;;20928017;28;20029;-75
2020/12/05 13:47:34;;;;;;;26.93;13.80;;;3.50;99.90;;;;;;20939119;28;20047;-76
2020/12/05 13:57:34;;;;;;;40.33;17.50;;;3.40;99.90;;;;;;20932770;28;20669;-76
2020/12/05 14:07:35;;;;;;;27.57;14.10;;;3.40;99.90;;;;;;20969780;28;20043;-76
2020/12/05 14:17:36;;;;;;;26.70;14.53;;;3.30;99.90;;;;;;20951298;28;20682;-76
2020/12/05 14:27:37;;;;;;;25.57;14.17;;;3.40;99.90;;;;;;20920704;28;20274;-75
2020/12/05 14:37:38;;;;;;;25.13;13.60;;;3.30;99.90;;;;;;20965145;28;20029;-76
2020/12/05 14:47:39;;;;;;;23.55;12.75;;;3.30;99.90;;;;;;20953290;28;20029;-76
2020/12/05 14:57:40;;;;;;;30.67;17.53;;;3.20;99.90;;;;;;20963289;28;20044;-75
2020/12/05 15:07:41;;;;;;;26.23;13.20;;;3.00;99.90;;;;;;20983293;28;20055;-76
2020/12/05 15:17:42;;;;;;;32.10;17.47;;;3.00;99.90;;;;;;20983118;28;20020;-76
2020/12/05 15:27:43;;;;;;;35.88;16.23;;;2.80;99.90;;;;;;20926925;28;20282;-76
2020/12/05 15:37:44;;;;;;;23.57;11.77;;;2.70;99.90;;;;;;20940957;28;20025;-76
2020/12/05 15:47:47;;;;;;;26.30;13.30;;;2.70;99.90;;;;;;20986861;22;20307;-78
2020/12/05 15:57:49;;;;;;;31.67;15.75;;;2.70;99.90;;;;;;20948121;28;20344;-78
2020/12/05 16:07:59;;;;;;;25.67;13.03;;;2.70;99.90;;;;;;20942972;28;20028;-80
2020/12/05 16:18:00;;;;;;;;;;;2.60;99.90;;;;;;20915439;28;20053;-79
2020/12/05 16:28:02;;;;;;;26.43;13.50;;;2.60;99.90;;;;;;20908702;28;19968;-79
2020/12/05 16:38:06;;;;;;;23.30;11.60;;;2.60;99.90;;;;;;20909360;28;20030;-79
2020/12/05 16:48:08;;;;;;;25.90;12.38;;;2.60;99.90;;;;;;20920623;28;20059;-80
2020/12/05 16:58:09;;;;;;;22.63;11.68;;;2.50;99.90;;;;;;20922444;28;20041;-78
2020/12/05 17:08:10;;;;;;;20.40;10.88;;;2.60;99.90;;;;;;20899542;28;20037;-79
2020/12/05 17:18:12;;;;;;;24.48;13.30;;;2.50;99.90;;;;;;20924776;28;20030;-79
2020/12/05 17:28:16;;;;;;;27.63;13.20;;;2.50;99.90;;;;;;20934372;28;20040;-79
2020/12/05 17:38:17;;;;;;;22.15;12.10;;;2.50;99.90;;;;;;20902167;28;20044;-78
2020/12/05 17:48:22;;;;;;;27.00;13.52;;;2.50;99.90;;;;;;20911574;28;20068;-78
2020/12/05 17:58:25;;;;;;;31.25;14.05;;;2.50;99.90;;;;;;20882660;28;20037;-79
2020/12/05 18:08:26;;;;;;;29.10;14.05;;;2.50;99.90;;;;;;20900902;28;20056;-78
2020/12/05 18:18:27;;;;;;;24.40;12.30;;;2.50;99.90;;;;;;20999212;28;20025;-79
2020/12/05 18:28:28;;;;;;;27.70;13.02;;;2.50;99.90;;;;;;20926528;28;20022;-80
2020/12/05 18:38:29;;;;;;;22.27;10.77;;;2.50;99.90;;;;;;20871037;28;20049;-78
2020/12/05 18:48:32;;;;;;;23.08;11.23;;;2.60;99.90;;;;;;20908626;28;20306;-80
2020/12/05 18:58:41;;;;;;;25.23;11.13;;;2.60;99.90;;;;;;20951181;28;20041;-80
2020/12/05 19:08:46;;;;;;;27.73;11.85;;;2.60;99.90;;;;;;20951325;28;20060;-79
2020/12/05 19:18:47;;;;;;;22.35;11.68;;;2.70;99.90;;;;;;20912002;28;20029;-80
2020/12/05 19:28:52;;;;;;;29.05;12.90;;;2.70;99.90;;;;;;20929307;28;20013;-80
2020/12/05 19:38:54;;;;;;;24.05;12.23;;;2.70;99.90;;;;;;20947146;28;20036;-80
2020/12/05 19:48:56;;;;;;;;;;;2.70;99.90;;;;;;20941861;28;20050;-79
2020/12/05 19:58:57;;;;;;;30.15;13.45;;;2.60;99.90;;;;;;20900377;28;19919;-78
2020/12/05 20:08:58;;;;;;;30.75;14.20;;;2.60;99.90;;;;;;20877002;28;20037;-78
2020/12/05 20:19:00;;;;;;;34.83;15.52;;;2.60;99.90;;;;;;20947671;28;20029;-80
2020/12/05 20:29:01;;;;;;;33.65;15.40;;;2.50;99.90;;;;;;20876477;28;20385;-81
2020/12/05 20:39:02;;;;;;;36.42;15.95;;;2.50;99.90;;;;;;20857089;28;20025;-80
2020/12/05 20:49:03;;;;;;;36.33;17.40;;;2.50;99.90;;;;;;20828252;28;20045;-80
2020/12/05 20:59:04;;;;;;;33.53;15.65;;;2.50;99.90;;;;;;20861569;28;20033;-80
2020/12/05 21:09:04;;;;;;;37.40;16.80;;;2.50;99.90;;;;;;20841741;28;20439;-80
2020/12/05 21:19:05;;;;;;;32.67;14.70;;;2.50;99.90;;;;;;20812316;28;20765;-78
2020/12/05 21:29:06;;;;;;;33.03;15.23;;;2.40;99.90;;;;;;20826714;28;20031;-80
2020/12/05 21:39:07;;;;;;;37.20;16.10;;;2.30;99.90;;;;;;20826257;28;20120;-81
2020/12/05 21:49:08;;;;;;;36.72;16.52;;;2.20;99.90;;;;;;20846267;28;20075;-80
2020/12/05 21:59:09;;;;;;;36.97;16.35;;;2.10;99.90;;;;;;20846291;28;20508;-81
2020/12/05 22:09:10;;;;;;;;;;;2.00;99.90;;;;;;20848429;28;20072;-80
2020/12/05 22:19:10;;;;;;;34.17;16.38;;;1.80;99.90;;;;;;20855508;28;19920;-80
2020/12/05 22:29:11;;;;;;;;;;;2.00;99.90;;;;;;20849306;28;20065;-81
2020/12/05 22:39:15;;;;;;;33.30;16.80;;;2.00;99.90;;;;;;20811568;28;19913;-82
2020/12/05 22:49:16;;;;;;;35.85;16.55;;;2.10;99.90;;;;;;20816771;28;20782;-80
2020/12/05 22:59:17;;;;;;;33.23;15.47;;;2.10;99.90;;;;;;20846448;28;20071;-80
2020/12/05 23:09:18;;;;;;;35.70;15.03;;;2.10;99.90;;;;;;20831866;28;20292;-79
2020/12/05 23:19:23;;;;;;;29.08;14.48;;;2.20;99.90;;;;;;20857577;28;20415;-80
2020/12/05 23:29:23;;;;;;;30.92;15.80;;;2.10;99.90;;;;;;20833064;28;20515;-80
2020/12/05 23:39:26;;;;;;;33.17;15.55;;;2.10;99.90;;;;;;20829241;28;20029;-80
2020/12/05 23:49:26;;;;;;;33.95;16.25;;;2.10;99.90;;;;;;20846747;28;20095;-80
2020/12/05 23:59:28;;;;;;;33.38;16.48;;;2.00;99.90;;;;;;20826313;28;20030;-80
